AFC weather

Aerofumigaciones Castro Airport
Mexicali, Baja California, Mexico

Public forecast

Using degrees Celsius for public forecast. Weather courtesy of forecast.io.

Closest aviation weather report (METAR) to Aerofumigaciones Castro Airport

Closest report is General Rodolfo Sánchez Taboada International Airport, 16.7 nm (30.9 km) WNW. Retrieved 2020/02/19 05:59 UTC (40 minutes ago):

MMML 190559Z RTD 00000KT 10SM SKC 15/00 A2995 RMK SLP142 52003 917

Closest aviation forecast (TAF) to Aerofumigaciones Castro Airport

Closest forecast is General Rodolfo Sánchez Taboada International Airport, 16.7 nm (30.9 km) WNW. Retrieved 2020/02/19 06:25 UTC (14 minutes ago):

TAF MMML 190418Z 1906/2006 30005KT P6SM SCT250 FM191600 30010KT P6SM SKC FM200200 30005KT P6SM SKC